Bremerton, WA (98310)

10:14 AM PST on March 01, 2017 (GMT -0800)
Old Middle School | | Change Station

Elev 302 ft 47.59 °N, 122.62 °W | Updated 5 seconds ago

Overcast
Overcast
44.6 °F
Feels Like 45 °F
N
3.0
Wind Variable Wind from SSW

Today
High -- | Low -- °F
--% Chance of Precip.
Yesterday
High -- | Low -- °F
Precip. -- in
Pressure 30.40 in
Visibility 10.0 miles
Clouds Mostly Cloudy 1200 ft
Overcast 6500 ft
Windchill 45 °F
Dew Point 38 °F
Humidity 78%
Rainfall 0.00 in
Snow Depth Not available.
6:50 AM 5:55 PM
Waxing Crescent, 12% visible
METAR KPWT 011755Z AUTO 19015G20KT 10SM BKN012 OVC065 06/04 A3040 RMK AO1 10060 20040 52030
Pressure 30.40 in
Visibility 10.0 miles
Clouds Mostly Cloudy 1200 ft
Overcast 6500 ft
Windchill 45 °F
Dew Point 38 °F
Humidity 78%
Rainfall 0.00 in
Snow Depth Not available.
6:50 AM 5:55 PM
Waxing Crescent, 12% visible
METAR KPWT 011755Z AUTO 19015G20KT 10SM BKN012 OVC065 06/04 A3040 RMK AO1 10060 20040 52030

Get Your Daily Forecast Email!

Thanks for signing up!

Be on the lookout for a verification email in your inbox.

You'll start receiving the daily forecast at 8 AM.

×

10-Day Weather Forecast

Almanac

Astronomy

Mar. 01, 2017 Rise Set
Actual Time
Civil Twilight
Nautical Twilight
Astronomical Twilight
Moon
Length of Visible Light
Length of Day
Tomorrow will be .
, % of the Moon is Illuminated

Today's Extremes

State Highs State Lows

Community

WunderPhotos

Upload Photos

1,962,540 photos uploaded!

WunderBlog® & News

Nearby

Air Quality

  Air Quality AQ Index Pollutant
Not available.

Snow Depth

Station Depth Elevation

Earthquake Activity

City Distance Mag. Time & Date
Minimum magnitude displayed is 2.5.

Coastal Water Temperatures

Place Temperature

Stations

Nearby Weather Stations

Station Location Temp. Windchill Dew Point Humidity Wind Precip. Elev Updated Type
                   

Watches & Warnings

There are currently no watches in effect.